Time;durP1;ratioP1;P1;durP2;ratioP2;P2;SDS_P1;SDS_P2;PMS_P1;PMS_P2;Temp;Humidity;BMP_temperature;BMP_pressure;BME280_temperature;BME280_humidity;BME280_pressure;Samples;Min_cycle;Max_cycle;Signal;HPM_P1;HPM_P2
2022/07/06 00:01:22;;;;;;;125.40;60.23;;;;;;;;;;6191466;28;20022;-91
2022/07/06 00:04:22;;;;;;;123.43;64.10;;;;;;;;;;6191863;28;20116;-91
2022/07/06 00:07:23;;;;;;;121.27;61.23;;;;;;;;;;6188250;28;20030;-91
2022/07/06 00:10:23;;;;;;;118.07;60.27;;;;;;;;;;6190290;28;20235;-91
2022/07/06 00:13:24;;;;;;;126.27;65.30;;;;;;;;;;6185492;28;20231;-91
2022/07/06 00:16:24;;;;;;;114.47;61.43;;;;;;;;;;6179251;28;20446;-92
2022/07/06 00:19:24;;;;;;;128.73;64.60;;;;;;;;;;6186823;28;20381;-91
2022/07/06 00:22:25;;;;;;;126.80;65.13;;;;;;;;;;6189584;28;20033;-91
2022/07/06 00:25:25;;;;;;;122.20;67.97;;;;;;;;;;6188316;28;20022;-91
2022/07/06 00:28:25;;;;;;;127.17;67.13;;;;;;;;;;6188608;28;20022;-92
2022/07/06 00:31:25;;;;;;;139.27;67.10;;;;;;;;;;6182244;28;20113;-91
2022/07/06 00:34:25;;;;;;;126.50;61.13;;;;;;;;;;6187986;28;20060;-91
2022/07/06 00:37:26;;;;;;;120.27;61.03;;;;;;;;;;6189505;28;20026;-92
2022/07/06 00:40:27;;;;;;;130.37;64.33;;;;;;;;;;6193827;28;20022;-91
2022/07/06 00:43:27;;;;;;;119.60;59.87;;;;;;;;;;6187752;28;20355;-91
2022/07/06 00:46:30;;;;;;;116.50;60.27;;;;;;;;;;6185024;28;20055;-92
2022/07/06 00:52:52;;;;;;;115.32;59.30;;;;;;;;;;6195843;28;20038;-92
2022/07/06 00:55:53;;;;;;;117.38;63.25;;;;;;;;;;6190757;28;20030;-92
2022/07/06 00:58:53;;;;;;;120.67;60.03;;;;;;;;;;6190150;28;20033;-92
2022/07/06 01:01:53;;;;;;;121.20;63.47;;;;;;;;;;6199438;28;20061;-92
2022/07/06 01:04:54;;;;;;;116.10;57.77;;;;;;;;;;6187193;28;20584;-92
2022/07/06 01:07:56;;;;;;;117.93;63.13;;;;;;;;;;6174258;28;20033;-92
2022/07/06 01:10:56;;;;;;;;;;;;;;;;;;6192267;28;20053;-92
2022/07/06 01:13:59;;;;;;;102.17;53.97;;;;;;;;;;6189932;28;19910;-92
2022/07/06 01:17:06;;;;;;;99.18;56.65;;;;;;;;;;6192733;28;20042;-92
2022/07/06 01:20:15;;;;;;;107.72;60.22;;;;;;;;;;6190848;28;20015;-93
2022/07/06 01:23:16;;;;;;;86.20;53.40;;;;;;;;;;6191424;28;20022;-92
2022/07/06 01:26:20;;;;;;;94.43;58.60;;;;;;;;;;6192826;28;20429;-93
2022/07/06 01:29:20;;;;;;;99.13;57.80;;;;;;;;;;6189798;28;20029;-92
2022/07/06 01:32:20;;;;;;;87.37;55.93;;;;;;;;;;6188900;28;20046;-92
2022/07/06 01:35:29;;;;;;;97.43;58.03;;;;;;;;;;6195287;28;20518;-92
2022/07/06 01:38:29;;;;;;;90.97;54.37;;;;;;;;;;6185877;28;20022;-92
2022/07/06 01:41:29;;;;;;;100.27;59.63;;;;;;;;;;6200456;28;20536;-92
2022/07/06 01:44:29;;;;;;;102.53;58.70;;;;;;;;;;6192206;28;20029;-93
2022/07/06 01:47:30;;;;;;;87.40;53.67;;;;;;;;;;6191514;28;20010;-92
2022/07/06 01:50:31;;;;;;;88.90;54.13;;;;;;;;;;6191725;28;20029;-92
2022/07/06 01:53:32;;;;;;;97.10;56.72;;;;;;;;;;6174940;28;20078;-92
2022/07/06 01:56:32;;;;;;;93.50;58.43;;;;;;;;;;6189514;28;20429;-93
2022/07/06 01:59:32;;;;;;;92.63;56.67;;;;;;;;;;6186741;28;20189;-92
2022/07/06 02:02:32;;;;;;;99.00;60.60;;;;;;;;;;6190675;28;20014;-93
2022/07/06 02:05:33;;;;;;;98.40;57.23;;;;;;;;;;6191150;28;20018;-92
2022/07/06 02:08:33;;;;;;;107.33;62.27;;;;;;;;;;6195094;28;20513;-93
2022/07/06 02:11:34;;;;;;;118.60;60.40;;;;;;;;;;6185486;28;20066;-92
2022/07/06 02:14:34;;;;;;;119.20;72.17;;;;;;;;;;6186072;28;20111;-92
2022/07/06 02:17:34;;;;;;;112.57;66.47;;;;;;;;;;6188250;28;20475;-93
2022/07/06 02:20:34;;;;;;;125.50;71.73;;;;;;;;;;6192245;28;20357;-93
2022/07/06 02:23:35;;;;;;;109.30;66.10;;;;;;;;;;6193264;28;20114;-93
2022/07/06 02:26:35;;;;;;;123.40;66.73;;;;;;;;;;6196240;28;20018;-93
2022/07/06 02:29:35;;;;;;;109.90;63.67;;;;;;;;;;6195711;28;20026;-93
2022/07/06 02:32:35;;;;;;;112.83;64.73;;;;;;;;;;6192740;28;20029;-93
2022/07/06 02:35:37;;;;;;;127.67;69.93;;;;;;;;;;6191789;28;20082;-93
2022/07/06 02:38:37;;;;;;;118.35;66.43;;;;;;;;;;6187600;28;20035;-92
2022/07/06 02:41:37;;;;;;;122.70;72.23;;;;;;;;;;6187835;28;20380;-92
2022/07/06 02:44:37;;;;;;;114.93;65.87;;;;;;;;;;6188115;28;20382;-92
2022/07/06 02:47:38;;;;;;;120.32;62.13;;;;;;;;;;6187547;28;20026;-92
2022/07/06 02:50:38;;;;;;;117.67;62.97;;;;;;;;;;6186743;28;20014;-92
2022/07/06 02:53:38;;;;;;;118.10;65.07;;;;;;;;;;6186333;28;20082;-92
2022/07/06 02:56:38;;;;;;;116.13;64.97;;;;;;;;;;6193038;28;20026;-92
2022/07/06 02:59:39;;;;;;;108.97;63.00;;;;;;;;;;6186652;28;20022;-92
2022/07/06 03:02:39;;;;;;;106.50;60.50;;;;;;;;;;6189581;28;20015;-92
2022/07/06 03:05:39;;;;;;;111.77;62.50;;;;;;;;;;6193667;28;20096;-92
2022/07/06 03:08:39;;;;;;;116.60;70.10;;;;;;;;;;6192058;28;20022;-92
2022/07/06 03:11:39;;;;;;;111.80;64.87;;;;;;;;;;6190833;28;20104;-92
2022/07/06 03:14:40;;;;;;;114.60;62.73;;;;;;;;;;6193584;28;20080;-91
2022/07/06 03:17:40;;;;;;;118.73;69.17;;;;;;;;;;6189900;28;20111;-92
2022/07/06 03:20:40;;;;;;;98.78;59.42;;;;;;;;;;6192226;28;20010;-92
2022/07/06 03:23:40;;;;;;;92.53;55.23;;;;;;;;;;6191921;28;20053;-91
2022/07/06 03:26:40;;;;;;;105.33;60.27;;;;;;;;;;6190994;28;20122;-92
2022/07/06 03:29:41;;;;;;;102.70;59.30;;;;;;;;;;6192573;28;20106;-92
2022/07/06 03:32:41;;;;;;;97.87;57.30;;;;;;;;;;6192260;28;20032;-92
2022/07/06 03:35:41;;;;;;;97.47;58.43;;;;;;;;;;6192383;28;20018;-91
2022/07/06 03:38:41;;;;;;;105.57;60.00;;;;;;;;;;6189753;28;20433;-91
2022/07/06 03:41:42;;;;;;;99.60;56.13;;;;;;;;;;6191786;28;20093;-92
2022/07/06 03:44:42;;;;;;;97.17;56.67;;;;;;;;;;6191593;28;20045;-92
2022/07/06 03:47:42;;;;;;;91.30;54.90;;;;;;;;;;6190443;28;20486;-91
2022/07/06 03:50:42;;;;;;;91.82;56.53;;;;;;;;;;6192796;28;20045;-91
2022/07/06 03:53:42;;;;;;;107.50;62.73;;;;;;;;;;6187533;28;20026;-91
2022/07/06 03:56:43;;;;;;;92.93;53.10;;;;;;;;;;6192165;28;20019;-91
2022/07/06 03:59:43;;;;;;;84.43;52.47;;;;;;;;;;6190575;28;20088;-91
2022/07/06 04:02:43;;;;;;;95.10;54.13;;;;;;;;;;6190862;28;20474;-91
2022/07/06 04:05:43;;;;;;;100.17;56.90;;;;;;;;;;6190046;28;20105;-91
2022/07/06 04:08:44;;;;;;;96.43;64.17;;;;;;;;;;6188631;28;20104;-91
2022/07/06 04:11:44;;;;;;;97.00;57.53;;;;;;;;;;6189936;28;20450;-91
2022/07/06 04:14:44;;;;;;;98.93;56.83;;;;;;;;;;6191186;28;20098;-91
2022/07/06 04:17:53;;;;;;;83.23;49.07;;;;;;;;;;6189464;28;20014;-91
2022/07/06 04:20:54;;;;;;;64.63;43.70;;;;;;;;;;6194653;28;20018;-91
2022/07/06 04:23:54;;;;;;;58.57;38.40;;;;;;;;;;6192985;28;20029;-91
2022/07/06 04:26:54;;;;;;;58.73;40.97;;;;;;;;;;6192162;28;20018;-91
2022/07/06 04:29:54;;;;;;;52.83;37.80;;;;;;;;;;6189057;28;20056;-91
2022/07/06 04:32:55;;;;;;;60.90;39.20;;;;;;;;;;6190399;28;20183;-91
2022/07/06 04:35:55;;;;;;;47.43;34.13;;;;;;;;;;6191643;28;20390;-91
2022/07/06 04:38:55;;;;;;;66.73;38.43;;;;;;;;;;6189270;28;20006;-91
2022/07/06 04:41:56;;;;;;;71.37;40.93;;;;;;;;;;6188934;28;20014;-91
2022/07/06 04:44:56;;;;;;;92.23;44.23;;;;;;;;;;6180817;28;20022;-92
2022/07/06 04:47:56;;;;;;;108.90;49.60;;;;;;;;;;6191679;28;20029;-91
2022/07/06 04:50:56;;;;;;;103.40;49.97;;;;;;;;;;6190670;28;20598;-92
2022/07/06 04:53:56;;;;;;;112.53;50.80;;;;;;;;;;6190971;28;20109;-92
2022/07/06 04:56:57;;;;;;;96.63;44.13;;;;;;;;;;6189106;28;20042;-92
2022/07/06 04:59:57;;;;;;;96.83;46.23;;;;;;;;;;6187708;28;20024;-92
2022/07/06 05:02:57;;;;;;;90.57;41.47;;;;;;;;;;6187384;28;20131;-92
2022/07/06 05:05:57;;;;;;;102.83;45.67;;;;;;;;;;6187245;28;20030;-92
2022/07/06 05:08:59;;;;;;;113.67;44.50;;;;;;;;;;6185018;28;20028;-91
2022/07/06 05:11:59;;;;;;;90.20;42.63;;;;;;;;;;6187431;28;20049;-91
2022/07/06 05:15:00;;;;;;;102.57;45.20;;;;;;;;;;6185286;28;20018;-91
2022/07/06 05:18:00;;;;;;;99.20;44.70;;;;;;;;;;6183695;28;20011;-91
2022/07/06 05:21:00;;;;;;;110.37;49.33;;;;;;;;;;6190239;28;20022;-91
2022/07/06 05:24:00;;;;;;;93.13;47.90;;;;;;;;;;6197659;28;20018;-91
2022/07/06 05:27:01;;;;;;;95.83;43.93;;;;;;;;;;6188252;28;20030;-91
2022/07/06 05:30:01;;;;;;;88.87;41.37;;;;;;;;;;6192542;28;20046;-91
2022/07/06 05:33:01;;;;;;;90.20;41.27;;;;;;;;;;6192158;28;20279;-91
2022/07/06 05:36:01;;;;;;;79.53;40.50;;;;;;;;;;6188956;28;20038;-91
2022/07/06 05:39:02;;;;;;;81.20;39.60;;;;;;;;;;6181679;28;20023;-91
2022/07/06 05:42:02;;;;;;;91.07;41.00;;;;;;;;;;6184635;28;20093;-91
2022/07/06 05:45:04;;;;;;;95.83;45.17;;;;;;;;;;6178070;28;20152;-91
2022/07/06 05:51:23;;;;;;;78.20;36.88;;;;;;;;;;6176644;28;20038;-91
2022/07/06 05:54:23;;;;;;;82.33;39.03;;;;;;;;;;6184561;28;20026;-91
2022/07/06 05:57:23;;;;;;;79.43;35.15;;;;;;;;;;6176984;28;20399;-91
2022/07/06 06:00:24;;;;;;;69.87;34.20;;;;;;;;;;6182612;28;20018;-91
2022/07/06 06:03:24;;;;;;;71.73;34.63;;;;;;;;;;6178796;28;20097;-91
2022/07/06 06:06:25;;;;;;;65.93;34.67;;;;;;;;;;6183184;28;20339;-91
2022/07/06 06:09:25;;;;;;;73.90;33.07;;;;;;;;;;6171682;28;20018;-91
2022/07/06 06:12:25;;;;;;;47.33;27.43;;;;;;;;;;6183643;28;20037;-91
2022/07/06 06:15:25;;;;;;;50.37;27.70;;;;;;;;;;6175299;28;20500;-90
2022/07/06 06:18:26;;;;;;;42.85;23.38;;;;;;;;;;6180591;28;20018;-90
2022/07/06 06:21:26;;;;;;;43.53;23.77;;;;;;;;;;6178494;28;20363;-90
2022/07/06 06:24:28;;;;;;;31.43;19.70;;;;;;;;;;6174646;28;20439;-90
2022/07/06 06:27:28;;;;;;;32.05;18.15;;;;;;;;;;6175770;28;20027;-90
2022/07/06 06:30:28;;;;;;;35.95;17.95;;;;;;;;;;6174482;28;20402;-90
2022/07/06 06:33:28;;;;;;;26.93;17.30;;;;;;;;;;6182503;28;20022;-90
2022/07/06 06:36:28;;;;;;;;;;;;;;;;;;6179419;28;20054;-90
2022/07/06 06:39:29;;;;;;;24.33;16.60;;;;;;;;;;6187222;28;19960;-90
2022/07/06 06:42:29;;;;;;;27.43;16.33;;;;;;;;;;6189226;28;20395;-90
2022/07/06 06:45:29;;;;;;;30.83;18.50;;;;;;;;;;6181045;28;20395;-90
2022/07/06 06:48:31;;;;;;;29.40;16.27;;;;;;;;;;6180872;28;20084;-89
2022/07/06 06:51:32;;;;;;;29.52;16.20;;;;;;;;;;6180763;28;20474;-89
2022/07/06 06:54:32;;;;;;;33.28;15.18;;;;;;;;;;6178490;28;20153;-90
2022/07/06 06:57:32;;;;;;;27.85;15.48;;;;;;;;;;6178074;28;20794;-89
2022/07/06 07:00:32;;;;;;;43.53;22.03;;;;;;;;;;6183550;28;20154;-90
2022/07/06 07:03:33;;;;;;;46.53;24.27;;;;;;;;;;6182371;28;20295;-89
2022/07/06 07:06:33;;;;;;;44.77;24.83;;;;;;;;;;6178426;28;20019;-89
2022/07/06 07:09:33;;;;;;;53.67;27.97;;;;;;;;;;6189523;28;20061;-89
2022/07/06 07:12:33;;;;;;;52.37;28.63;;;;;;;;;;6189939;28;20112;-89
2022/07/06 07:15:34;;;;;;;71.57;31.27;;;;;;;;;;6184291;28;20380;-89
2022/07/06 07:18:34;;;;;;;71.97;35.33;;;;;;;;;;6182103;28;20022;-89
2022/07/06 07:21:35;;;;;;;75.27;35.80;;;;;;;;;;6184622;28;20655;-89
2022/07/06 07:24:35;;;;;;;74.60;35.27;;;;;;;;;;6185532;28;20552;-89
2022/07/06 07:27:35;;;;;;;70.60;34.70;;;;;;;;;;6183178;28;20037;-89
2022/07/06 07:30:35;;;;;;;64.00;31.57;;;;;;;;;;6179217;28;20029;-89
2022/07/06 07:33:36;;;;;;;59.50;29.47;;;;;;;;;;6185290;28;20022;-89
2022/07/06 07:36:36;;;;;;;65.37;28.87;;;;;;;;;;6188993;28;20046;-89
2022/07/06 07:39:37;;;;;;;63.73;30.47;;;;;;;;;;6189343;28;20033;-89
2022/07/06 07:42:40;;;;;;;69.73;33.00;;;;;;;;;;6188502;28;20022;-89
2022/07/06 07:45:40;;;;;;;59.38;29.60;;;;;;;;;;6184036;28;20077;-89
2022/07/06 07:48:40;;;;;;;55.27;28.40;;;;;;;;;;6185069;28;20019;-89
2022/07/06 07:51:41;;;;;;;48.42;26.60;;;;;;;;;;6189437;28;20476;-88
2022/07/06 07:54:41;;;;;;;52.47;24.57;;;;;;;;;;6189940;28;20506;-89
2022/07/06 07:57:42;;;;;;;44.30;28.20;;;;;;;;;;6188515;28;20053;-89
2022/07/06 08:00:42;;;;;;;49.43;27.23;;;;;;;;;;6185822;28;20015;-89
2022/07/06 08:03:42;;;;;;;42.37;26.93;;;;;;;;;;6184805;28;20027;-89
2022/07/06 08:06:42;;;;;;;46.88;25.98;;;;;;;;;;6189278;28;20022;-89
2022/07/06 08:09:42;;;;;;;53.63;30.87;;;;;;;;;;6186240;28;20426;-89
2022/07/06 08:12:42;;;;;;;50.93;30.30;;;;;;;;;;6189232;28;20026;-89
2022/07/06 08:15:43;;;;;;;59.00;33.53;;;;;;;;;;6189377;28;20015;-89
2022/07/06 08:18:43;;;;;;;57.77;32.73;;;;;;;;;;6178357;28;20098;-89
2022/07/06 08:21:43;;;;;;;55.50;34.37;;;;;;;;;;6176317;28;20152;-89
2022/07/06 08:24:43;;;;;;;46.00;27.07;;;;;;;;;;6186020;28;20553;-89
2022/07/06 08:27:44;;;;;;;37.27;26.60;;;;;;;;;;6188388;28;20022;-89
2022/07/06 08:30:44;;;;;;;29.97;18.60;;;;;;;;;;6183648;28;20073;-89
2022/07/06 08:33:44;;;;;;;29.23;20.00;;;;;;;;;;6189080;28;20026;-89
2022/07/06 08:36:45;;;;;;;28.77;17.47;;;;;;;;;;6187630;28;20588;-88
2022/07/06 08:39:45;;;;;;;22.40;15.57;;;;;;;;;;6187921;28;20302;-89
2022/07/06 08:42:48;;;;;;;15.88;13.00;;;;;;;;;;6187685;28;20046;-88
2022/07/06 08:45:49;;;;;;;15.75;10.90;;;;;;;;;;6187218;28;20029;-88
2022/07/06 08:48:49;;;;;;;13.45;9.25;;;;;;;;;;6182731;28;20247;-87
2022/07/06 08:51:50;;;;;;;10.27;8.57;;;;;;;;;;6178814;28;20026;-88
2022/07/06 08:54:51;;;;;;;11.70;7.33;;;;;;;;;;6184901;28;20025;-88
2022/07/06 08:57:51;;;;;;;8.60;5.88;;;;;;;;;;6183015;28;20026;-88
2022/07/06 09:00:52;;;;;;;10.73;7.05;;;;;;;;;;6185113;28;20052;-88
2022/07/06 09:03:54;;;;;;;6.97;5.45;;;;;;;;;;6183006;28;20477;-88
2022/07/06 09:06:54;;;;;;;6.50;4.80;;;;;;;;;;6187695;28;20023;-88
2022/07/06 09:09:56;;;;;;;7.83;5.80;;;;;;;;;;6189144;28;20038;-88
2022/07/06 09:13:06;;;;;;;14.30;6.15;;;;;;;;;;6187033;28;20077;-88
2022/07/06 09:16:10;;;;;;;8.85;5.25;;;;;;;;;;6186243;28;20030;-89
2022/07/06 09:19:11;;;;;;;8.55;6.28;;;;;;;;;;6186771;28;20076;-89
2022/07/06 09:22:24;;;;;;;14.63;8.17;;;;;;;;;;6188487;28;20031;-89
2022/07/06 09:25:25;;;;;;;9.63;6.47;;;;;;;;;;6189448;28;20093;-89
2022/07/06 09:28:39;;;;;;;10.73;6.82;;;;;;;;;;6178890;28;20027;-89
2022/07/06 09:31:40;;;;;;;8.85;6.13;;;;;;;;;;6185477;28;20164;-89
2022/07/06 09:34:41;;;;;;;9.33;6.30;;;;;;;;;;6180000;28;20467;-89
2022/07/06 09:37:42;;;;;;;11.90;6.13;;;;;;;;;;6185589;28;20121;-89
2022/07/06 09:40:43;;;;;;;7.93;5.83;;;;;;;;;;6182669;28;20454;-89
2022/07/06 09:43:43;;;;;;;;;;;;;;;;;;6180884;28;20026;-88
2022/07/06 09:46:45;;;;;;;7.47;5.25;;;;;;;;;;6179395;28;19920;-89
2022/07/06 09:49:47;;;;;;;5.50;4.18;;;;;;;;;;6182433;28;20029;-89
2022/07/06 09:52:55;;;;;;;7.00;3.88;;;;;;;;;;6184088;28;20077;-89
2022/07/06 09:55:57;;;;;;;5.32;3.55;;;;;;;;;;6180574;28;20030;-88
2022/07/06 09:58:58;;;;;;;7.15;4.55;;;;;;;;;;6182611;28;20255;-89
2022/07/06 10:02:00;;;;;;;10.13;4.47;;;;;;;;;;6185775;28;20172;-88
2022/07/06 10:05:01;;;;;;;6.05;4.50;;;;;;;;;;6185324;28;20053;-89
2022/07/06 10:08:01;;;;;;;5.17;4.27;;;;;;;;;;6184418;28;20228;-89
2022/07/06 10:11:01;;;;;;;7.00;3.57;;;;;;;;;;6184503;28;20418;-89
2022/07/06 10:14:03;;;;;;;7.17;4.17;;;;;;;;;;6185600;28;20125;-89
2022/07/06 10:17:06;;;;;;;5.63;4.07;;;;;;;;;;6185985;28;20235;-88
2022/07/06 10:20:07;;;;;;;9.75;5.97;;;;;;;;;;6182338;28;20028;-89
2022/07/06 10:23:08;;;;;;;7.47;4.57;;;;;;;;;;6181322;28;20031;-88
2022/07/06 10:26:09;;;;;;;10.18;4.95;;;;;;;;;;6183379;28;20034;-89
2022/07/06 10:29:09;;;;;;;5.32;3.85;;;;;;;;;;6181219;28;20089;-89
2022/07/06 10:32:10;;;;;;;9.97;4.93;;;;;;;;;;6185491;28;20574;-89
2022/07/06 10:35:10;;;;;;;7.18;4.00;;;;;;;;;;6177737;28;20033;-89
2022/07/06 10:38:10;;;;;;;4.70;3.30;;;;;;;;;;6192340;28;20034;-89
2022/07/06 10:41:13;;;;;;;7.80;5.23;;;;;;;;;;6183895;28;20098;-89
2022/07/06 10:44:27;;;;;;;5.32;3.28;;;;;;;;;;6184765;28;21057;-89
2022/07/06 10:47:28;;;;;;;5.28;3.63;;;;;;;;;;6186310;28;20418;-89
2022/07/06 10:50:34;;;;;;;5.07;3.73;;;;;;;;;;6184261;28;20019;-89
2022/07/06 10:53:35;;;;;;;4.90;3.70;;;;;;;;;;6186699;28;20035;-89
2022/07/06 10:56:35;;;;;;;;;;;;;;;;;;6184613;28;20026;-89
2022/07/06 10:59:36;;;;;;;5.13;3.63;;;;;;;;;;6186675;28;20045;-89
2022/07/06 11:02:39;;;;;;;6.67;3.57;;;;;;;;;;6184645;28;20038;-88
2022/07/06 11:05:40;;;;;;;7.15;3.80;;;;;;;;;;6184472;28;20109;-88
2022/07/06 11:09:00;;;;;;;5.10;4.50;;;;;;;;;;6183100;28;20073;-88
2022/07/06 11:12:11;;;;;;;6.85;3.38;;;;;;;;;;6184371;28;20113;-88
2022/07/06 11:15:11;;;;;;;6.00;3.33;;;;;;;;;;6186001;28;20428;-88
2022/07/06 11:18:12;;;;;;;4.87;3.73;;;;;;;;;;6184431;28;20026;-89
2022/07/06 11:21:17;;;;;;;3.15;2.85;;;;;;;;;;6185263;28;20095;-89
2022/07/06 11:24:18;;;;;;;6.82;4.20;;;;;;;;;;6188222;28;20053;-89
2022/07/06 11:27:22;;;;;;;5.47;3.53;;;;;;;;;;6187603;28;20022;-88
2022/07/06 11:30:22;;;;;;;9.40;4.28;;;;;;;;;;6186219;28;20763;-88
2022/07/06 11:33:27;;;;;;;3.97;2.63;;;;;;;;;;6181366;28;20019;-88
2022/07/06 11:36:28;;;;;;;5.28;2.97;;;;;;;;;;6175730;28;20455;-88
2022/07/06 11:39:29;;;;;;;4.00;2.37;;;;;;;;;;6177644;28;20029;-88
2022/07/06 11:42:29;;;;;;;6.55;2.75;;;;;;;;;;6189017;28;20802;-88
2022/07/06 11:45:29;;;;;;;9.27;3.72;;;;;;;;;;6188751;28;20316;-89
2022/07/06 11:48:29;;;;;;;3.67;2.73;;;;;;;;;;6188761;28;20109;-89
2022/07/06 11:51:30;;;;;;;2.20;1.73;;;;;;;;;;6188454;28;20698;-89
2022/07/06 11:54:31;;;;;;;3.85;2.70;;;;;;;;;;6188730;28;20110;-88
2022/07/06 11:57:32;;;;;;;3.63;2.80;;;;;;;;;;6184845;28;20018;-89
2022/07/06 12:00:32;;;;;;;6.45;3.65;;;;;;;;;;6182002;28;20394;-89
2022/07/06 12:03:34;;;;;;;5.13;3.42;;;;;;;;;;6183962;28;20339;-89
2022/07/06 12:06:34;;;;;;;3.92;3.20;;;;;;;;;;6185766;28;20018;-89
2022/07/06 12:09:36;;;;;;;4.75;3.33;;;;;;;;;;6179230;28;20077;-89
2022/07/06 12:12:36;;;;;;;5.60;2.95;;;;;;;;;;6183351;28;20125;-89
2022/07/06 12:15:36;;;;;;;5.77;3.00;;;;;;;;;;6172310;28;20442;-89
2022/07/06 12:18:38;;;;;;;7.53;3.83;;;;;;;;;;6177118;28;20050;-89
2022/07/06 12:21:48;;;;;;;5.35;3.15;;;;;;;;;;6189317;28;20105;-89
2022/07/06 12:24:48;;;;;;;6.30;3.28;;;;;;;;;;6178284;28;20106;-89
2022/07/06 12:27:48;;;;;;;4.43;2.60;;;;;;;;;;6189163;28;20044;-89
2022/07/06 12:30:48;;;;;;;6.47;2.67;;;;;;;;;;6189611;28;20018;-89
2022/07/06 12:33:58;;;;;;;1.90;1.70;;;;;;;;;;6184667;28;20563;-90
2022/07/06 12:36:59;;;;;;;2.90;2.05;;;;;;;;;;6178383;28;20026;-90
2022/07/06 12:40:00;;;;;;;3.80;2.95;;;;;;;;;;6182884;28;20077;-89
2022/07/06 12:43:00;;;;;;;4.13;2.35;;;;;;;;;;6186404;28;20053;-89
2022/07/06 12:46:21;;;;;;;1.88;1.70;;;;;;;;;;6186041;28;20023;-90
2022/07/06 12:49:24;;;;;;;4.80;2.90;;;;;;;;;;6186858;28;20797;-92
2022/07/06 12:52:28;;;;;;;7.90;6.05;;;;;;;;;;6188254;28;20336;-90
2022/07/06 12:55:28;;;;;;;8.95;6.20;;;;;;;;;;6185741;28;20014;-89
2022/07/06 12:58:29;;;;;;;6.27;5.07;;;;;;;;;;6187984;28;20591;-90
2022/07/06 13:01:29;;;;;;;8.03;4.97;;;;;;;;;;6179044;28;20034;-91
2022/07/06 13:04:31;;;;;;;8.83;5.40;;;;;;;;;;6186155;28;20053;-90
2022/07/06 13:07:35;;;;;;;7.95;5.78;;;;;;;;;;6185293;28;20117;-91
2022/07/06 13:10:35;;;;;;;8.55;5.47;;;;;;;;;;6188316;28;20042;-91
2022/07/06 13:13:42;;;;;;;7.10;4.90;;;;;;;;;;6192377;28;20211;-91
2022/07/06 13:16:43;;;;;;;6.30;3.97;;;;;;;;;;6179112;28;21332;-90
2022/07/06 13:19:44;;;;;;;5.68;4.18;;;;;;;;;;6175605;28;20037;-90
2022/07/06 13:22:44;;;;;;;5.20;3.87;;;;;;;;;;6174418;28;20329;-90
2022/07/06 13:25:44;;;;;;;4.13;3.00;;;;;;;;;;6182266;28;20391;-89
2022/07/06 13:28:44;;;;;;;4.00;3.10;;;;;;;;;;6184174;28;20122;-89
2022/07/06 13:31:45;;;;;;;2.67;2.27;;;;;;;;;;6180021;28;20023;-91
2022/07/06 13:34:45;;;;;;;3.93;2.57;;;;;;;;;;6174660;28;20469;-91
2022/07/06 13:37:49;;;;;;;3.93;2.37;;;;;;;;;;6177457;28;20027;-91
2022/07/06 13:40:49;;;;;;;2.58;2.17;;;;;;;;;;6174588;28;20046;-90
2022/07/06 13:43:49;;;;;;;;;;;;;;;;;;6178838;28;20037;-90
2022/07/06 13:46:49;;;;;;;1.52;1.42;;;;;;;;;;6180210;28;19905;-90
2022/07/06 13:49:50;;;;;;;2.40;1.80;;;;;;;;;;6192094;28;20541;-91
2022/07/06 13:52:50;;;;;;;2.00;1.13;;;;;;;;;;6182853;28;20036;-90
2022/07/06 13:55:50;;;;;;;1.60;1.20;;;;;;;;;;6177465;28;20022;-90
2022/07/06 13:58:50;;;;;;;1.40;1.20;;;;;;;;;;6176536;28;20042;-89
2022/07/06 14:01:51;;;;;;;5.70;1.30;;;;;;;;;;6189469;28;20030;-89
2022/07/06 14:04:51;;;;;;;3.72;1.40;;;;;;;;;;6177956;28;20026;-89
2022/07/06 14:07:51;;;;;;;7.43;2.08;;;;;;;;;;6189631;28;20053;-89
2022/07/06 14:10:52;;;;;;;6.90;1.60;;;;;;;;;;6181546;28;20046;-89
2022/07/06 14:13:53;;;;;;;2.53;1.55;;;;;;;;;;6180500;28;20095;-89
2022/07/06 14:16:54;;;;;;;1.80;1.67;;;;;;;;;;6181463;28;20526;-89
2022/07/06 14:19:54;;;;;;;1.67;1.20;;;;;;;;;;6179614;28;20088;-89
2022/07/06 14:22:54;;;;;;;2.47;1.27;;;;;;;;;;6180066;28;20361;-90
2022/07/06 14:25:55;;;;;;;1.53;1.30;;;;;;;;;;6179362;28;20038;-90
2022/07/06 14:28:55;;;;;;;3.15;1.70;;;;;;;;;;6183388;28;20425;-90
2022/07/06 14:31:55;;;;;;;1.10;0.90;;;;;;;;;;6179730;28;20178;-89
2022/07/06 14:34:56;;;;;;;4.83;2.20;;;;;;;;;;6183086;28;20293;-89
2022/07/06 14:37:56;;;;;;;4.70;2.20;;;;;;;;;;6182357;28;20029;-89
2022/07/06 14:40:56;;;;;;;4.57;1.93;;;;;;;;;;6177069;28;20471;-90
2022/07/06 14:43:56;;;;;;;3.80;2.13;;;;;;;;;;6172702;28;20019;-89
2022/07/06 14:46:57;;;;;;;7.27;3.03;;;;;;;;;;6172544;28;20018;-89
2022/07/06 14:49:57;;;;;;;;;;;;;;;;;;6174106;28;20026;-89
2022/07/06 14:52:57;;;;;;;9.40;3.70;;;;;;;;;;6189499;28;20322;-89
2022/07/06 14:55:57;;;;;;;9.40;4.63;;;;;;;;;;6173881;28;20046;-89
2022/07/06 14:58:57;;;;;;;10.77;5.43;;;;;;;;;;6181124;28;20029;-89
2022/07/06 15:01:58;;;;;;;14.00;4.60;;;;;;;;;;6189466;28;20219;-89
2022/07/06 15:04:58;;;;;;;15.37;5.13;;;;;;;;;;6184784;28;20022;-88
2022/07/06 15:07:58;;;;;;;5.65;2.55;;;;;;;;;;6189781;28;20014;-89
2022/07/06 15:10:58;;;;;;;9.73;2.87;;;;;;;;;;6192721;28;21012;-89
2022/07/06 15:13:59;;;;;;;5.97;2.73;;;;;;;;;;6187728;28;20046;-89
2022/07/06 15:16:59;;;;;;;5.13;2.83;;;;;;;;;;6189301;28;20552;-88
2022/07/06 15:19:59;;;;;;;3.93;2.43;;;;;;;;;;6188599;28;20058;-89
2022/07/06 15:23:00;;;;;;;3.33;1.80;;;;;;;;;;6179551;28;20029;-89
2022/07/06 15:26:01;;;;;;;4.00;1.90;;;;;;;;;;6179467;28;20023;-88
2022/07/06 15:29:02;;;;;;;2.65;1.30;;;;;;;;;;6182021;28;20105;-89
2022/07/06 15:32:02;;;;;;;5.50;1.90;;;;;;;;;;6186606;28;20030;-89
2022/07/06 15:35:05;;;;;;;5.43;1.97;;;;;;;;;;6184363;28;20029;-89
2022/07/06 15:38:06;;;;;;;4.85;2.55;;;;;;;;;;6178183;28;20314;-89
2022/07/06 15:41:06;;;;;;;3.33;1.70;;;;;;;;;;6189098;28;20402;-89
2022/07/06 15:44:06;;;;;;;5.67;1.60;;;;;;;;;;6187947;28;20038;-89
2022/07/06 15:47:07;;;;;;;5.17;1.90;;;;;;;;;;6188603;28;20034;-89
2022/07/06 15:50:07;;;;;;;5.87;2.63;;;;;;;;;;6183797;28;20478;-89
2022/07/06 15:53:08;;;;;;;3.03;2.03;;;;;;;;;;6187801;28;20022;-90
2022/07/06 15:56:08;;;;;;;2.80;1.67;;;;;;;;;;6191104;28;20071;-89
2022/07/06 15:59:08;;;;;;;5.10;1.88;;;;;;;;;;6189601;28;20018;-89
2022/07/06 16:02:08;;;;;;;6.87;1.67;;;;;;;;;;6190539;28;20057;-89
2022/07/06 16:05:08;;;;;;;1.53;1.40;;;;;;;;;;6190276;28;20436;-89
2022/07/06 16:08:09;;;;;;;3.40;1.70;;;;;;;;;;6188357;28;20390;-89
2022/07/06 16:11:10;;;;;;;2.67;1.60;;;;;;;;;;6193497;28;20065;-89
2022/07/06 16:14:10;;;;;;;6.68;1.65;;;;;;;;;;6186951;28;20018;-89
2022/07/06 16:17:10;;;;;;;5.10;1.80;;;;;;;;;;6186264;28;20030;-90
2022/07/06 16:20:13;;;;;;;4.63;1.93;;;;;;;;;;6188423;28;20144;-89
2022/07/06 16:23:13;;;;;;;2.83;1.40;;;;;;;;;;6189070;28;20402;-90
2022/07/06 16:26:14;;;;;;;5.77;1.80;;;;;;;;;;6186197;28;20290;-89
2022/07/06 16:29:14;;;;;;;5.00;1.93;;;;;;;;;;6184394;28;20050;-90
2022/07/06 16:32:14;;;;;;;3.23;1.77;;;;;;;;;;6187234;28;20026;-89
2022/07/06 16:35:14;;;;;;;7.60;2.03;;;;;;;;;;6186168;28;20105;-89
2022/07/06 16:38:15;;;;;;;5.60;2.20;;;;;;;;;;6177441;28;20180;-89
2022/07/06 16:41:15;;;;;;;2.97;1.60;;;;;;;;;;6195794;28;20027;-91
2022/07/06 16:44:15;;;;;;;7.50;1.97;;;;;;;;;;6182061;28;20014;-90
2022/07/06 16:47:15;;;;;;;2.37;1.33;;;;;;;;;;6177972;28;20324;-90
2022/07/06 16:50:16;;;;;;;4.37;1.80;;;;;;;;;;6183416;28;20030;-90
2022/07/06 16:53:16;;;;;;;4.33;1.90;;;;;;;;;;6180571;28;20038;-89
2022/07/06 16:56:16;;;;;;;5.50;1.27;;;;;;;;;;6182353;28;20439;-90
2022/07/06 16:59:16;;;;;;;4.37;1.60;;;;;;;;;;6185192;28;20407;-90
2022/07/06 17:02:17;;;;;;;4.35;1.42;;;;;;;;;;6185814;28;20125;-90
2022/07/06 17:05:17;;;;;;;6.87;1.77;;;;;;;;;;6173678;28;20065;-90
2022/07/06 17:08:17;;;;;;;2.43;1.43;;;;;;;;;;6183660;28;20053;-90
2022/07/06 17:11:17;;;;;;;4.50;1.63;;;;;;;;;;6184733;28;20034;-90
2022/07/06 17:14:18;;;;;;;3.13;1.53;;;;;;;;;;6185031;28;20714;-90
2022/07/06 17:17:19;;;;;;;7.40;1.60;;;;;;;;;;6185946;28;20108;-90
2022/07/06 17:20:19;;;;;;;9.70;2.90;;;;;;;;;;6183953;28;20098;-90
2022/07/06 17:23:19;;;;;;;5.03;2.13;;;;;;;;;;6184990;28;20137;-90
2022/07/06 17:26:20;;;;;;;4.77;2.13;;;;;;;;;;6188731;28;20030;-90
2022/07/06 17:29:20;;;;;;;2.72;1.80;;;;;;;;;;6186558;28;20053;-91
2022/07/06 17:32:20;;;;;;;6.60;2.73;;;;;;;;;;6186596;28;20034;-91
2022/07/06 17:35:21;;;;;;;6.23;1.30;;;;;;;;;;6184135;28;20034;-90
2022/07/06 17:38:21;;;;;;;5.40;2.37;;;;;;;;;;6188294;28;20624;-90
2022/07/06 17:41:21;;;;;;;1.77;1.60;;;;;;;;;;6186940;28;20028;-90
2022/07/06 17:44:22;;;;;;;3.47;1.83;;;;;;;;;;6186628;28;20505;-90
2022/07/06 17:47:22;;;;;;;3.07;1.97;;;;;;;;;;6186873;28;20081;-90
2022/07/06 17:50:22;;;;;;;2.83;1.83;;;;;;;;;;6193322;28;20069;-90
2022/07/06 17:53:22;;;;;;;2.20;1.47;;;;;;;;;;6186607;28;20032;-90